Alberta, Virginia
Current Conditions -  °F | °C
As of 8:35 PM on Friday 19 Dec 2014 (Local Time) from KLVL Reporting Station
Clear Clear  
Wind Chill: 35°   Ceiling: Unl
Heat Index: 35°   Visibility: 10mi
Dew Point: 30°   Wind: 0mph
Humidity: 84%   Direction: NA
Pressure: 30.19"   Gusts: NA
Location:  36.87°N, 77.89°W
Report Text: KLVL 200135Z AUTO 00000KT 10SM CLR 01/M01 A3019 RMK AO1 T00141010
Loading
Personal Weather Stations






























Interactive Weather Map New forecast layout! Learn more

10-Day Weather Forecast

Advertisements
Track Severe Weather on mobile